Time;durP1;ratioP1;P1;durP2;ratioP2;P2;SDS_P1;SDS_P2;PMS_P1;PMS_P2;Temp;Humidity;BMP_temperature;BMP_pressure;BME280_temperature;BME280_humidity;BME280_pressure;Samples;Min_cycle;Max_cycle;Signal;HPM_P1;HPM_P2
2022/01/30 00:01:02;;;;;;;115.73;108.33;;;6.60;99.90;;;;;;4415247;32;20171;-62
2022/01/30 00:03:36;;;;;;;125.50;117.63;;;6.40;99.90;;;;;;4413426;32;20156;-63
2022/01/30 00:06:06;;;;;;;124.53;117.03;;;6.40;99.90;;;;;;4392018;32;20182;-63
2022/01/30 00:08:37;;;;;;;119.87;113.37;;;6.40;99.90;;;;;;4393264;32;20140;-62
2022/01/30 00:11:20;;;;;;;123.87;115.67;;;6.30;99.90;;;;;;4402766;32;20170;-62
2022/01/30 00:16:44;;;;;;;121.70;113.57;;;6.30;99.90;;;;;;4408942;32;20212;-63
2022/01/30 00:19:23;;;;;;;113.67;106.13;;;6.40;99.90;;;;;;4409054;32;20162;-62
2022/01/30 00:22:12;;;;;;;126.00;118.23;;;6.40;99.90;;;;;;4408779;32;20152;-62
2022/01/30 00:24:50;;;;;;;118.30;110.40;;;6.40;99.90;;;;;;4402028;32;20493;-62
2022/01/30 00:27:30;;;;;;;118.77;111.17;;;6.50;99.90;;;;;;4401692;32;20205;-62
2022/01/30 00:30:01;;;;;;;118.37;110.73;;;6.50;99.90;;;;;;4406240;32;20579;-63
2022/01/30 00:32:40;;;;;;;118.23;110.43;;;6.40;99.90;;;;;;4410550;32;20233;-63
2022/01/30 00:35:24;;;;;;;123.57;115.90;;;6.40;99.90;;;;;;4406651;32;20144;-63
2022/01/30 00:37:56;;;;;;;115.77;108.40;;;6.40;99.90;;;;;;4406972;32;20262;-63
2022/01/30 00:40:23;;;;;;;112.20;105.00;;;6.30;99.90;;;;;;4407968;32;20143;-62
2022/01/30 00:42:59;;;;;;;124.67;116.63;;;6.20;99.90;;;;;;4411519;32;20156;-62
2022/01/30 00:45:32;;;;;;;113.33;105.40;;;6.30;99.90;;;;;;4406779;32;20522;-63
2022/01/30 00:47:59;;;;;;;119.13;112.23;;;6.30;99.90;;;;;;4392628;32;20175;-64
2022/01/30 00:50:28;;;;;;;127.37;118.60;;;6.10;99.90;;;;;;4393536;32;20163;-65
2022/01/30 00:53:01;;;;;;;131.90;124.33;;;6.20;99.90;;;;;;4400836;32;20170;-62
2022/01/30 00:55:30;;;;;;;124.73;116.93;;;6.10;99.90;;;;;;4402967;32;20486;-64
2022/01/30 00:57:58;;;;;;;132.63;124.87;;;6.10;99.90;;;;;;4408139;32;20186;-64
2022/01/30 01:00:27;;;;;;;134.07;126.50;;;6.20;99.90;;;;;;4407734;32;20160;-65
2022/01/30 01:02:57;;;;;;;136.17;127.93;;;6.20;99.90;;;;;;4409400;32;20174;-65
2022/01/30 01:05:24;;;;;;;137.40;129.40;;;6.20;99.90;;;;;;4402738;32;20190;-64
2022/01/30 01:08:02;;;;;;;130.63;122.07;;;6.10;99.90;;;;;;4392786;32;20164;-62
2022/01/30 01:10:42;;;;;;;131.63;123.43;;;6.20;99.90;;;;;;4392559;32;20144;-64
2022/01/30 01:13:48;;;;;;;123.03;115.40;;;6.20;99.90;;;;;;4392431;32;20538;-63
2022/01/30 01:25:03;;;;;;;114.37;107.47;;;6.10;99.90;;;;;;4408284;32;20159;-62
2022/01/30 01:27:39;;;;;;;115.77;107.70;;;6.20;99.90;;;;;;4404771;32;20178;-60
2022/01/30 01:30:20;;;;;;;;;;;;;;;;;;;;;
2022/01/30 01:32:47;;;;;;;115.67;107.97;;;6.00;99.90;;;;;;4408748;32;20136;-63
2022/01/30 01:35:15;;;;;;;113.73;106.20;;;6.10;99.90;;;;;;4406679;32;20224;-62
2022/01/30 01:37:51;;;;;;;119.20;110.67;;;6.00;99.90;;;;;;4405443;32;20151;-62
2022/01/30 01:40:25;;;;;;;113.10;106.07;;;6.00;99.90;;;;;;4407191;32;20548;-62
2022/01/30 01:43:02;;;;;;;109.33;102.73;;;6.00;99.90;;;;;;4407313;32;20139;-62
2022/01/30 01:45:40;;;;;;;106.47;99.43;;;6.00;99.90;;;;;;4411914;32;20197;-63
2022/01/30 01:48:13;;;;;;;116.03;109.03;;;5.90;99.90;;;;;;4391906;32;20189;-62
2022/01/30 01:50:44;;;;;;;123.83;115.40;;;5.80;99.90;;;;;;4391953;32;20191;-62
2022/01/30 01:53:17;;;;;;;119.33;112.53;;;5.80;99.90;;;;;;4408470;32;20139;-61
2022/01/30 01:55:54;;;;;;;123.80;116.73;;;5.90;99.90;;;;;;4421426;32;20140;-60
2022/01/30 01:58:28;;;;;;;128.63;120.20;;;5.80;99.90;;;;;;4393144;32;20143;-60
2022/01/30 02:01:02;;;;;;;128.93;121.43;;;5.90;99.90;;;;;;4392484;32;20587;-61
2022/01/30 02:06:20;;;;;;;130.13;122.70;;;6.00;99.90;;;;;;4394711;32;20201;-62
2022/01/30 02:08:51;;;;;;;124.03;116.33;;;6.10;99.90;;;;;;4421887;32;20139;-62
2022/01/30 02:11:34;;;;;;;129.67;121.83;;;6.00;99.90;;;;;;4421518;32;20487;-63
2022/01/30 02:14:36;;;;;;;132.63;125.00;;;5.90;99.90;;;;;;4418902;32;20171;-62
2022/01/30 02:25:40;;;;;;;109.37;103.87;;;6.10;99.90;;;;;;4384447;32;20168;-62
2022/01/30 02:28:13;;;;;;;95.80;90.93;;;6.10;99.90;;;;;;4374984;32;20688;-63
2022/01/30 02:30:52;;;;;;;92.97;87.93;;;6.10;99.90;;;;;;4374979;32;20194;-62
2022/01/30 02:33:32;;;;;;;89.10;84.13;;;5.90;99.90;;;;;;4374117;32;20216;-62
2022/01/30 02:36:04;;;;;;;94.10;88.73;;;5.80;99.90;;;;;;4372462;32;20149;-62
2022/01/30 02:38:40;;;;;;;108.20;101.97;;;5.70;99.90;;;;;;4362999;32;20161;-63
2022/01/30 02:41:07;;;;;;;95.47;90.40;;;5.60;99.90;;;;;;4359164;33;20249;-62
2022/01/30 02:43:57;;;;;;;113.67;106.97;;;5.60;99.90;;;;;;4360516;32;20667;-62
2022/01/30 02:46:33;;;;;;;109.57;103.10;;;5.70;99.90;;;;;;4368500;32;20156;-62
2022/01/30 02:49:12;;;;;;;112.57;106.40;;;5.80;99.90;;;;;;4378217;32;20630;-62
2022/01/30 02:51:48;;;;;;;114.97;108.53;;;5.90;99.90;;;;;;4359152;33;20769;-61
2022/01/30 02:54:20;;;;;;;118.90;112.23;;;6.20;99.90;;;;;;4358803;33;20211;-62
2022/01/30 02:56:54;;;;;;;102.50;95.97;;;6.20;99.90;;;;;;4372656;32;20179;-63
2022/01/30 02:59:30;;;;;;;96.60;91.43;;;6.10;99.90;;;;;;4361291;32;20157;-62
2022/01/30 03:02:02;;;;;;;101.77;96.43;;;6.00;99.90;;;;;;4337272;32;1677496;-62
2022/01/30 03:04:29;;;;;;;107.23;101.73;;;5.90;99.90;;;;;;4405948;32;20468;-60
2022/01/30 03:06:59;;;;;;;104.67;98.73;;;5.90;99.90;;;;;;4418522;32;20163;-62
2022/01/30 03:09:44;;;;;;;106.63;100.47;;;5.90;99.90;;;;;;4396176;32;20148;-63
2022/01/30 03:12:14;;;;;;;97.70;91.50;;;5.80;99.90;;;;;;4377536;32;20219;-63
2022/01/30 03:14:50;;;;;;;114.20;107.73;;;5.80;99.90;;;;;;4390785;32;20144;-60
2022/01/30 03:17:19;;;;;;;117.97;111.33;;;5.60;99.90;;;;;;4404575;32;20205;-63
2022/01/30 03:19:48;;;;;;;124.93;118.23;;;5.50;99.90;;;;;;4392975;32;20617;-63
2022/01/30 03:22:16;;;;;;;111.83;105.47;;;5.40;99.90;;;;;;4397052;32;20160;-63
2022/01/30 03:24:56;;;;;;;105.53;100.17;;;5.40;99.90;;;;;;4405716;32;20135;-60
2022/01/30 03:27:34;;;;;;;117.00;110.77;;;5.40;99.90;;;;;;4406531;32;20472;-63
2022/01/30 03:30:18;;;;;;;105.63;100.67;;;5.40;99.90;;;;;;4394848;32;20475;-63
2022/01/30 03:32:45;;;;;;;96.77;91.13;;;5.30;99.90;;;;;;4390559;32;20144;-60
2022/01/30 03:35:15;;;;;;;102.00;95.63;;;5.50;99.90;;;;;;4390716;32;20148;-60
2022/01/30 03:37:48;;;;;;;99.00;93.10;;;5.50;99.90;;;;;;4390307;32;20176;-63
2022/01/30 03:40:16;;;;;;;94.30;89.30;;;5.30;99.90;;;;;;4402523;32;20174;-63
2022/01/30 03:42:57;;;;;;;97.10;92.17;;;5.30;99.90;;;;;;4405628;32;20544;-63
2022/01/30 03:45:44;;;;;;;83.03;78.67;;;5.30;99.90;;;;;;4405611;32;20189;-60
2022/01/30 03:48:12;;;;;;;90.17;85.47;;;5.40;99.90;;;;;;4405563;32;20131;-63
2022/01/30 03:50:43;;;;;;;86.40;81.63;;;5.30;99.90;;;;;;4410407;32;20156;-63
2022/01/30 03:53:11;;;;;;;99.33;94.07;;;5.20;99.90;;;;;;4420191;32;20463;-61
2022/01/30 03:55:48;;;;;;;99.80;94.17;;;5.20;99.90;;;;;;4401604;32;20190;-63
2022/01/30 03:58:14;;;;;;;96.77;91.07;;;5.40;99.90;;;;;;4405793;32;20154;-60
2022/01/30 04:00:45;;;;;;;99.60;93.97;;;5.30;99.90;;;;;;4397239;32;20174;-60
2022/01/30 04:03:12;;;;;;;90.87;85.23;;;5.30;99.90;;;;;;4405929;32;20147;-62
2022/01/30 04:05:39;;;;;;;103.23;97.67;;;5.40;99.90;;;;;;4405421;32;20166;-63
2022/01/30 04:08:07;;;;;;;97.50;92.00;;;5.20;99.90;;;;;;4405362;32;20144;-63
2022/01/30 04:10:45;;;;;;;94.87;89.70;;;5.20;99.90;;;;;;4402743;32;20182;-62
2022/01/30 04:13:12;;;;;;;96.37;91.20;;;5.30;99.90;;;;;;4419963;32;20163;-60
2022/01/30 04:15:48;;;;;;;101.43;95.70;;;5.20;99.90;;;;;;4420632;32;20552;-62
2022/01/30 04:18:22;;;;;;;95.40;90.20;;;5.10;99.90;;;;;;4420346;32;20173;-61
2022/01/30 04:20:54;;;;;;;108.93;102.67;;;5.20;99.90;;;;;;4412232;32;20151;-62
2022/01/30 04:23:21;;;;;;;90.70;85.57;;;5.10;99.90;;;;;;4420534;32;20181;-62
2022/01/30 04:25:55;;;;;;;100.13;94.03;;;5.30;99.90;;;;;;4421694;32;20471;-61
2022/01/30 04:28:24;;;;;;;104.07;98.43;;;5.40;99.90;;;;;;4410337;32;20241;-61
2022/01/30 04:30:57;;;;;;;103.33;97.40;;;5.50;99.90;;;;;;4405079;32;20148;-62
2022/01/30 04:33:33;;;;;;;93.43;88.03;;;5.60;99.90;;;;;;4405105;32;20148;-62
2022/01/30 04:36:08;;;;;;;91.23;85.33;;;5.80;99.90;;;;;;4405000;32;20171;-62
2022/01/30 04:38:54;;;;;;;82.80;77.70;;;5.80;99.90;;;;;;4405676;32;20174;-62
2022/01/30 04:58:18;;;;;;;92.80;87.50;;;5.60;99.90;;;;;;4360681;32;20214;-61
2022/01/30 05:03:56;;;;;;;93.03;87.80;;;5.60;99.90;;;;;;4372586;32;20184;-62
2022/01/30 05:06:41;;;;;;;98.00;92.83;;;5.40;99.90;;;;;;4372132;32;20168;-62
2022/01/30 05:09:13;;;;;;;90.57;85.00;;;5.30;99.90;;;;;;4360453;32;20319;-62
2022/01/30 05:11:41;;;;;;;104.67;98.23;;;5.30;99.90;;;;;;4374114;32;20179;-62
2022/01/30 05:14:28;;;;;;;105.00;99.43;;;5.30;99.90;;;;;;4389783;32;20641;-62
2022/01/30 05:17:01;;;;;;;99.93;93.37;;;5.60;99.90;;;;;;4390008;32;20151;-61
2022/01/30 05:19:45;;;;;;;92.97;87.73;;;5.70;99.90;;;;;;4387511;32;20215;-61
2022/01/30 05:22:14;;;;;;;96.20;90.70;;;5.70;99.90;;;;;;4398528;32;20176;-61
2022/01/30 05:25:04;;;;;;;100.80;94.50;;;5.60;99.90;;;;;;4407082;32;20208;-62
2022/01/30 05:27:40;;;;;;;104.30;98.73;;;5.40;99.90;;;;;;4344279;33;20169;-61
2022/01/30 05:30:12;;;;;;;97.53;90.93;;;5.50;99.90;;;;;;4344802;33;20243;-61
2022/01/30 05:32:42;;;;;;;99.77;92.73;;;5.60;99.90;;;;;;4337413;32;20593;-61
2022/01/30 05:35:21;;;;;;;110.47;104.53;;;5.50;99.90;;;;;;4342546;33;20235;-62
2022/01/30 05:38:02;;;;;;;101.43;95.07;;;5.30;99.90;;;;;;4344681;33;20184;-61
2022/01/30 05:40:36;;;;;;;102.63;96.90;;;5.20;99.90;;;;;;4344891;33;20188;-62
2022/01/30 05:43:09;;;;;;;102.17;95.97;;;5.10;99.90;;;;;;4334634;32;20166;-63
2022/01/30 05:45:41;;;;;;;112.03;106.13;;;5.10;99.90;;;;;;4330162;33;20161;-62
2022/01/30 05:48:18;;;;;;;105.70;99.53;;;5.00;99.90;;;;;;4330165;33;20148;-62
2022/01/30 05:50:48;;;;;;;97.77;91.77;;;5.00;99.90;;;;;;4330122;33;20157;-62
2022/01/30 05:53:16;;;;;;;108.87;102.13;;;5.30;99.90;;;;;;4334058;33;20188;-62
2022/01/30 05:55:46;;;;;;;107.93;101.67;;;5.20;99.90;;;;;;4346573;32;20221;-63
2022/01/30 05:58:17;;;;;;;106.03;99.90;;;5.20;99.90;;;;;;4344818;33;20160;-62
2022/01/30 06:00:48;;;;;;;99.40;93.03;;;5.20;99.90;;;;;;4345000;33;20153;-62
2022/01/30 06:03:14;;;;;;;107.60;101.10;;;5.30;99.90;;;;;;4349817;33;20224;-62
2022/01/30 06:05:45;;;;;;;101.43;95.47;;;5.20;99.90;;;;;;4420966;32;20178;-61
2022/01/30 06:08:27;;;;;;;102.93;97.00;;;5.30;99.90;;;;;;4422306;32;20139;-62
2022/01/30 06:10:56;;;;;;;102.67;96.73;;;5.30;99.90;;;;;;4421701;32;20140;-60
2022/01/30 06:13:31;;;;;;;103.53;97.03;;;5.10;99.90;;;;;;4409781;32;20151;-63
2022/01/30 06:16:03;;;;;;;97.33;91.07;;;5.10;99.90;;;;;;4407031;32;20246;-63
2022/01/30 06:18:35;;;;;;;98.00;91.87;;;5.30;99.90;;;;;;4405789;32;20158;-63
2022/01/30 06:21:10;;;;;;;99.70;93.93;;;5.20;99.90;;;;;;4406663;32;20148;-63
2022/01/30 06:23:43;;;;;;;105.10;98.53;;;5.10;99.90;;;;;;4400973;32;20173;-63
2022/01/30 06:26:26;;;;;;;112.17;106.00;;;5.10;99.90;;;;;;4391212;32;20194;-63
2022/01/30 06:28:58;;;;;;;104.43;98.33;;;5.10;99.90;;;;;;4391971;32;20219;-60
2022/01/30 06:31:40;;;;;;;98.23;92.43;;;5.10;99.90;;;;;;4391417;32;20194;-63
2022/01/30 06:34:10;;;;;;;98.17;92.43;;;5.00;99.90;;;;;;4401412;32;20155;-60
2022/01/30 06:36:36;;;;;;;111.90;105.40;;;4.90;99.90;;;;;;4406055;32;20574;-63
2022/01/30 06:39:07;;;;;;;107.90;101.60;;;4.80;99.90;;;;;;4406518;32;20144;-63
2022/01/30 06:41:34;;;;;;;103.57;97.57;;;4.70;99.90;;;;;;4404565;32;20205;-62
2022/01/30 06:44:01;;;;;;;108.40;102.07;;;4.60;99.90;;;;;;4403339;32;20159;-63
2022/01/30 06:46:39;;;;;;;112.50;105.70;;;4.60;99.90;;;;;;4406147;32;20195;-63
2022/01/30 06:49:21;;;;;;;104.77;98.23;;;4.50;99.90;;;;;;4406086;32;20136;-60
2022/01/30 06:51:58;;;;;;;99.07;92.13;;;4.50;99.90;;;;;;4404446;32;20260;-61
2022/01/30 06:54:45;;;;;;;104.00;97.47;;;4.60;99.90;;;;;;4406083;32;20150;-61
2022/01/30 06:57:28;;;;;;;101.30;94.23;;;4.50;99.90;;;;;;4406477;32;20168;-63
2022/01/30 06:59:59;;;;;;;93.40;87.33;;;4.60;99.90;;;;;;4406056;32;20148;-62
2022/01/30 07:02:37;;;;;;;101.63;95.73;;;4.50;99.90;;;;;;4403819;32;20190;-62
2022/01/30 07:07:46;;;;;;;97.87;91.87;;;4.40;99.90;;;;;;4397226;32;20191;-63
2022/01/30 07:10:20;;;;;;;112.43;105.00;;;4.30;99.90;;;;;;4399779;32;20156;-61
2022/01/30 07:12:58;;;;;;;106.33;99.63;;;4.30;99.90;;;;;;4404816;32;20216;-62
2022/01/30 07:15:36;;;;;;;102.90;97.10;;;4.30;99.90;;;;;;4402905;32;20197;-61
2022/01/30 07:18:15;;;;;;;95.03;89.20;;;4.30;99.90;;;;;;4404807;32;20218;-63
2022/01/30 07:20:55;;;;;;;100.20;94.33;;;4.20;99.90;;;;;;4405819;32;20521;-61
2022/01/30 07:23:25;;;;;;;102.73;96.67;;;4.20;99.90;;;;;;4403243;32;20168;-62
2022/01/30 07:25:56;;;;;;;99.63;93.37;;;4.20;99.90;;;;;;4402734;32;20225;-64
2022/01/30 07:31:11;;;;;;;97.37;91.27;;;4.40;99.90;;;;;;4401772;32;20219;-62
2022/01/30 07:33:41;;;;;;;103.13;96.23;;;4.40;99.90;;;;;;4404818;32;20530;-63
2022/01/30 07:36:11;;;;;;;99.93;93.53;;;4.40;99.90;;;;;;4403091;32;20219;-63
2022/01/30 07:38:50;;;;;;;;;;;;;;;;;;;;;
2022/01/30 07:41:25;;;;;;;93.20;87.00;;;4.70;99.90;;;;;;4405010;32;20480;-61
2022/01/30 07:44:06;;;;;;;103.27;96.80;;;4.70;99.90;;;;;;4404762;32;20489;-63
2022/01/30 07:46:39;;;;;;;100.83;93.37;;;4.70;99.90;;;;;;4398566;32;20477;-62
2022/01/30 07:49:09;;;;;;;104.47;97.60;;;4.70;99.90;;;;;;4404469;32;20159;-62
2022/01/30 07:51:47;;;;;;;103.77;97.07;;;4.60;99.90;;;;;;4405312;32;20152;-62
2022/01/30 07:54:18;;;;;;;97.90;91.73;;;4.60;99.90;;;;;;4401588;32;20218;-64
2022/01/30 07:56:47;;;;;;;106.50;100.33;;;4.50;99.90;;;;;;4403583;32;20163;-62
2022/01/30 07:59:16;;;;;;;97.17;91.03;;;4.60;99.90;;;;;;4404610;32;20186;-61
2022/01/30 08:01:46;;;;;;;95.07;88.83;;;4.60;99.90;;;;;;4404178;32;20488;-60
2022/01/30 08:04:19;;;;;;;100.57;94.10;;;4.60;99.90;;;;;;4404633;32;20137;-63
2022/01/30 08:06:55;;;;;;;98.80;92.53;;;4.60;99.90;;;;;;4400194;32;20144;-63
2022/01/30 08:09:22;;;;;;;95.83;89.40;;;4.70;99.90;;;;;;4399623;32;20147;-63
2022/01/30 08:11:49;;;;;;;94.63;88.73;;;4.70;99.90;;;;;;4401527;32;20209;-63
2022/01/30 08:14:26;;;;;;;92.37;86.83;;;4.80;99.90;;;;;;4404046;32;20160;-61
2022/01/30 08:17:02;;;;;;;94.77;88.77;;;4.80;99.90;;;;;;4393235;32;20178;-63
2022/01/30 08:19:34;;;;;;;100.30;94.10;;;4.90;99.90;;;;;;4401189;32;20184;-62
2022/01/30 08:22:02;;;;;;;102.23;95.47;;;4.80;99.90;;;;;;4404509;32;20201;-61
2022/01/30 08:24:34;;;;;;;101.20;94.37;;;4.90;99.90;;;;;;4404403;32;20195;-62
2022/01/30 08:27:07;;;;;;;93.53;87.77;;;5.00;99.90;;;;;;4403850;32;20152;-61
2022/01/30 08:29:37;;;;;;;96.90;90.37;;;5.10;99.90;;;;;;4407716;32;20152;-62
2022/01/30 08:32:11;;;;;;;106.50;100.13;;;5.30;99.90;;;;;;4408055;32;20591;-63
2022/01/30 08:34:48;;;;;;;99.10;92.33;;;5.30;99.90;;;;;;4408156;32;20160;-63
2022/01/30 08:37:15;;;;;;;98.00;92.30;;;5.20;99.90;;;;;;4405749;32;20205;-62
2022/01/30 08:39:49;;;;;;;100.53;93.57;;;5.20;99.90;;;;;;4411300;32;20154;-62
2022/01/30 08:42:19;;;;;;;93.03;86.97;;;5.30;99.90;;;;;;4411773;32;20223;-61
2022/01/30 08:44:54;;;;;;;106.50;98.47;;;5.40;99.90;;;;;;4416547;32;20193;-61
2022/01/30 08:47:33;;;;;;;98.83;92.90;;;5.40;99.90;;;;;;4412112;32;20216;-62
2022/01/30 08:50:05;;;;;;;98.17;92.00;;;5.50;99.90;;;;;;4410476;32;20178;-62
2022/01/30 08:52:32;;;;;;;99.03;92.60;;;5.50;99.90;;;;;;4410698;32;20506;-62
2022/01/30 08:55:04;;;;;;;105.77;98.57;;;5.60;99.90;;;;;;4408827;32;20156;-62
2022/01/30 08:57:40;;;;;;;95.87;89.40;;;5.70;99.90;;;;;;4415525;32;20152;-62
2022/01/30 09:00:12;;;;;;;104.80;97.77;;;5.80;99.90;;;;;;4412866;32;20151;-62
2022/01/30 09:02:45;;;;;;;91.30;84.30;;;5.80;99.90;;;;;;4413619;32;20186;-62
2022/01/30 09:05:27;;;;;;;97.07;90.63;;;5.90;99.90;;;;;;4409301;32;20202;-62
2022/01/30 09:08:04;;;;;;;82.43;76.13;;;6.00;99.90;;;;;;4410623;32;20509;-61
2022/01/30 09:10:33;;;;;;;90.60;84.00;;;6.10;99.90;;;;;;4409657;32;20199;-61
2022/01/30 09:13:00;;;;;;;89.07;83.57;;;6.10;99.90;;;;;;4414765;32;20564;-63
2022/01/30 09:18:37;;;;;;;80.07;73.77;;;6.30;99.90;;;;;;4347398;33;20716;-63
2022/01/30 09:21:08;;;;;;;86.93;79.67;;;6.40;99.90;;;;;;4350994;33;20207;-63
2022/01/30 09:23:38;;;;;;;90.70;85.03;;;6.50;99.90;;;;;;4351549;32;20276;-62
2022/01/30 09:26:27;;;;;;;91.13;84.80;;;6.60;99.90;;;;;;4351063;33;20296;-62
2022/01/30 09:29:09;;;;;;;74.77;69.00;;;6.60;99.90;;;;;;4347346;33;20157;-62
2022/01/30 09:31:47;;;;;;;79.40;74.13;;;6.60;99.90;;;;;;4346011;33;20189;-63
2022/01/30 09:34:20;;;;;;;86.20;80.07;;;6.60;99.90;;;;;;4350016;32;20577;-62
2022/01/30 09:37:08;;;;;;;90.90;84.53;;;6.60;99.90;;;;;;4346925;32;20216;-63
2022/01/30 09:39:39;;;;;;;78.37;71.23;;;6.70;99.90;;;;;;4349137;32;20590;-64
2022/01/30 09:42:20;;;;;;;83.30;77.37;;;6.80;99.90;;;;;;4348727;33;20232;-62
2022/01/30 09:44:47;;;;;;;76.03;69.83;;;6.80;99.90;;;;;;4346226;33;20263;-61
2022/01/30 09:47:16;;;;;;;75.23;68.57;;;6.80;99.90;;;;;;4347953;32;20157;-62
2022/01/30 09:49:54;;;;;;;82.93;75.87;;;6.90;99.90;;;;;;4347012;33;20540;-61
2022/01/30 09:52:38;;;;;;;78.27;72.70;;;6.90;99.90;;;;;;4346702;33;20160;-62
2022/01/30 09:55:10;;;;;;;70.13;64.33;;;7.10;99.90;;;;;;4364819;32;20139;-62
2022/01/30 09:57:52;;;;;;;61.07;55.90;;;7.30;99.90;;;;;;4410027;32;20209;-62
2022/01/30 10:00:28;;;;;;;67.00;61.90;;;7.30;99.90;;;;;;4413386;32;20147;-62
2022/01/30 10:02:57;;;;;;;73.80;68.23;;;7.20;99.90;;;;;;4400282;32;20557;-62
2022/01/30 10:05:25;;;;;;;69.80;64.17;;;7.30;99.90;;;;;;4395572;32;20170;-60
2022/01/30 10:08:26;;;;;;;69.63;63.40;;;7.30;99.90;;;;;;4394339;32;20136;-61
2022/01/30 10:11:26;;;;;;;61.33;56.70;;;7.60;99.90;;;;;;4334658;33;20191;-62
2022/01/30 10:14:10;;;;;;;55.70;50.40;;;7.80;99.90;;;;;;4332617;33;20186;-61
2022/01/30 10:16:45;;;;;;;53.10;49.20;;;8.20;99.90;;;;;;4339090;33;20675;-61
2022/01/30 10:19:21;;;;;;;59.13;54.60;;;8.30;99.90;;;;;;4334802;33;20219;-62
2022/01/30 10:22:04;;;;;;;69.73;63.33;;;8.40;99.90;;;;;;4340138;33;20225;-62
2022/01/30 10:24:49;;;;;;;68.43;62.90;;;9.00;99.90;;;;;;4333081;33;20771;-61
2022/01/30 10:27:23;;;;;;;49.33;44.07;;;9.00;99.90;;;;;;4345378;33;20191;-62
2022/01/30 10:29:58;;;;;;;55.13;50.87;;;8.80;99.90;;;;;;4343470;32;20215;-62
2022/01/30 10:32:28;;;;;;;49.20;45.07;;;8.80;99.90;;;;;;4341115;33;20757;-61
2022/01/30 10:35:03;;;;;;;56.33;51.43;;;8.60;99.90;;;;;;4348287;32;20200;-62
2022/01/30 10:37:40;;;;;;;46.63;42.23;;;8.80;99.90;;;;;;4343919;33;20157;-61
2022/01/30 10:40:24;;;;;;;42.60;38.70;;;9.20;99.90;;;;;;4336459;32;20160;-62
2022/01/30 10:42:52;;;;;;;44.37;36.77;;;9.30;99.90;;;;;;4332036;33;20240;-61
2022/01/30 10:45:33;;;;;;;44.77;40.30;;;9.00;99.90;;;;;;4343774;33;20199;-61
2022/01/30 10:48:29;;;;;;;44.33;38.90;;;8.70;99.90;;;;;;4366848;32;20620;-61
2022/01/30 10:51:21;;;;;;;43.90;39.87;;;8.30;99.90;;;;;;4397061;32;20140;-62
2022/01/30 10:53:55;;;;;;;51.60;42.67;;;8.30;99.90;;;;;;4405387;32;20166;-61
2022/01/30 10:56:31;;;;;;;52.07;47.60;;;8.20;99.90;;;;;;4400620;32;20160;-61
2022/01/30 10:59:14;;;;;;;53.77;49.50;;;8.10;99.90;;;;;;4391727;32;20144;-61
2022/01/30 11:01:46;;;;;;;50.00;45.33;;;8.40;99.90;;;;;;4397301;32;20179;-62
2022/01/30 11:04:28;;;;;;;49.13;44.17;;;8.40;99.90;;;;;;4390940;32;20157;-60
2022/01/30 11:07:05;;;;;;;57.00;39.13;;;8.40;99.90;;;;;;4391002;32;20140;-61
2022/01/30 11:09:39;;;;;;;40.67;35.63;;;8.40;99.90;;;;;;4390134;32;20617;-61
2022/01/30 11:12:15;;;;;;;39.20;35.17;;;8.30;99.90;;;;;;4390755;32;20575;-61
2022/01/30 11:15:04;;;;;;;53.60;33.73;;;8.30;99.90;;;;;;4399256;32;20144;-61
2022/01/30 11:17:35;;;;;;;35.60;29.67;;;8.30;99.90;;;;;;4403512;32;20148;-61
2022/01/30 11:20:04;;;;;;;44.83;30.37;;;8.20;99.90;;;;;;4392283;32;20201;-61
2022/01/30 11:22:37;;;;;;;42.97;31.60;;;8.50;99.90;;;;;;4398332;32;20207;-63
2022/01/30 11:25:13;;;;;;;29.47;24.70;;;8.90;99.90;;;;;;4395557;32;20166;-60
2022/01/30 11:27:47;;;;;;;39.17;27.17;;;9.10;99.90;;;;;;4407116;32;20183;-63
2022/01/30 11:30:17;;;;;;;32.00;24.10;;;9.20;99.90;;;;;;4397006;32;20172;-63
2022/01/30 11:32:58;;;;;;;34.13;26.77;;;8.90;99.90;;;;;;4403878;32;20159;-63
2022/01/30 11:35:28;;;;;;;38.13;27.73;;;8.60;99.90;;;;;;4396358;32;20186;-62
2022/01/30 11:37:57;;;;;;;39.93;24.67;;;8.50;99.90;;;;;;4396187;32;20178;-61
2022/01/30 11:40:38;;;;;;;36.53;28.27;;;8.40;99.90;;;;;;4392380;32;20162;-61
2022/01/30 11:43:10;;;;;;;29.63;26.53;;;8.20;99.90;;;;;;4399637;32;20168;-61
2022/01/30 11:45:37;;;;;;;45.90;31.87;;;8.10;99.90;;;;;;4397397;32;20149;-61
2022/01/30 11:48:16;;;;;;;41.30;26.23;;;8.10;99.90;;;;;;4402129;32;20219;-61
2022/01/30 11:50:48;;;;;;;41.17;26.17;;;8.20;99.90;;;;;;4395549;32;20208;-61
2022/01/30 11:53:33;;;;;;;33.87;23.77;;;8.20;99.90;;;;;;4392107;32;20203;-61
2022/01/30 11:56:08;;;;;;;38.27;26.40;;;8.40;99.90;;;;;;4399575;32;20392;-61
2022/01/30 11:58:49;;;;;;;35.53;25.40;;;8.40;99.90;;;;;;4397608;32;20640;-61
2022/01/30 12:01:39;;;;;;;38.00;21.83;;;8.30;99.90;;;;;;4393240;32;20648;-63
2022/01/30 12:04:17;;;;;;;35.30;21.67;;;8.20;99.90;;;;;;4405071;32;20148;-62
2022/01/30 12:06:50;;;;;;;33.17;24.63;;;8.00;99.90;;;;;;4407553;32;20203;-63
2022/01/30 12:09:29;;;;;;;25.43;19.67;;;7.90;99.90;;;;;;4408998;32;20193;-63
2022/01/30 12:12:16;;;;;;;32.03;20.57;;;7.90;99.90;;;;;;4401732;32;20186;-62
2022/01/30 12:14:48;;;;;;;30.73;19.27;;;8.00;99.90;;;;;;4393255;32;20167;-63
2022/01/30 12:17:19;;;;;;;25.93;21.23;;;8.30;99.90;;;;;;4393588;32;20152;-63
2022/01/30 12:20:07;;;;;;;36.93;21.67;;;8.80;99.90;;;;;;4394403;32;20176;-61
2022/01/30 12:22:39;;;;;;;39.23;21.77;;;9.00;99.90;;;;;;4394192;32;20150;-62
2022/01/30 12:25:56;;;;;;;36.07;22.00;;;8.90;99.90;;;;;;4419437;32;20149;-63
2022/01/30 12:28:40;;;;;;;39.23;19.40;;;8.70;99.90;;;;;;4423456;32;20186;-62
2022/01/30 12:31:39;;;;;;;27.90;20.70;;;8.40;99.90;;;;;;4408623;32;20187;-62
2022/01/30 12:34:07;;;;;;;32.83;21.57;;;8.30;99.90;;;;;;4402785;32;20157;-62
2022/01/30 12:36:38;;;;;;;25.83;19.90;;;8.20;99.90;;;;;;4408077;32;20145;-62
2022/01/30 12:39:08;;;;;;;31.90;20.10;;;8.20;99.90;;;;;;4407378;32;20188;-62
2022/01/30 12:41:38;;;;;;;33.23;20.20;;;8.30;99.90;;;;;;4404829;32;20152;-61
2022/01/30 12:44:19;;;;;;;35.63;18.27;;;8.40;99.90;;;;;;4413989;32;20147;-62
2022/01/30 12:46:53;;;;;;;29.23;19.70;;;8.70;99.90;;;;;;4407963;32;20191;-62
2022/01/30 12:49:32;;;;;;;22.90;20.13;;;9.10;99.90;;;;;;4415890;32;20148;-61
2022/01/30 12:52:05;;;;;;;29.40;20.73;;;9.20;99.90;;;;;;4416691;32;20247;-60
2022/01/30 12:54:43;;;;;;;33.83;19.37;;;9.40;99.90;;;;;;4402476;32;20143;-62
2022/01/30 12:57:15;;;;;;;31.43;19.03;;;9.00;99.10;;;;;;4406123;32;20185;-62
2022/01/30 12:59:56;;;;;;;32.10;19.23;;;8.60;99.70;;;;;;4408271;32;20141;-61
2022/01/30 13:02:37;;;;;;;36.70;22.63;;;8.20;99.90;;;;;;4402303;32;20195;-61
2022/01/30 13:05:06;;;;;;;37.03;18.47;;;8.00;99.90;;;;;;4401122;32;20227;-61
2022/01/30 13:07:47;;;;;;;31.17;18.37;;;7.80;99.90;;;;;;4405868;32;20633;-62
2022/01/30 13:10:16;;;;;;;39.30;21.13;;;7.70;99.90;;;;;;4398452;32;20215;-61
2022/01/30 13:12:46;;;;;;;30.03;24.27;;;7.50;99.90;;;;;;4404767;32;20504;-61
2022/01/30 13:15:18;;;;;;;44.83;27.53;;;7.50;99.90;;;;;;4401708;32;20148;-61
2022/01/30 13:17:48;;;;;;;32.43;28.97;;;7.40;99.90;;;;;;4391874;32;20573;-61
2022/01/30 13:20:28;;;;;;;33.73;25.57;;;7.50;99.90;;;;;;4410246;32;20139;-62
2022/01/30 13:22:57;;;;;;;42.03;27.77;;;7.60;99.90;;;;;;4401180;32;20148;-62
2022/01/30 13:25:25;;;;;;;38.53;27.80;;;7.60;99.90;;;;;;4396163;32;20186;-62
2022/01/30 13:27:57;;;;;;;41.93;30.53;;;7.50;99.90;;;;;;4399618;32;20155;-61
2022/01/30 13:30:30;;;;;;;36.77;25.30;;;7.50;99.90;;;;;;4402038;32;20223;-62
2022/01/30 13:33:02;;;;;;;34.00;29.03;;;7.40;99.90;;;;;;4402224;32;20145;-62
2022/01/30 13:35:48;;;;;;;37.37;29.90;;;7.30;99.90;;;;;;4396993;32;20155;-62
2022/01/30 13:38:15;;;;;;;33.00;29.47;;;7.20;99.90;;;;;;4394814;32;20179;-61
2022/01/30 13:40:57;;;;;;;34.53;30.00;;;7.10;99.90;;;;;;4395835;32;20167;-62
2022/01/30 13:43:37;;;;;;;32.27;29.30;;;7.10;99.90;;;;;;4379318;32;20141;-62
2022/01/30 13:49:16;;;;;;;38.50;26.70;;;7.20;99.90;;;;;;4400086;32;20171;-61
2022/01/30 13:51:53;;;;;;;24.67;21.30;;;7.30;99.90;;;;;;4390976;32;20450;-62
2022/01/30 13:54:29;;;;;;;34.97;24.00;;;7.20;99.90;;;;;;4393362;32;20140;-62
2022/01/30 13:57:08;;;;;;;32.67;26.20;;;7.10;99.90;;;;;;4391825;32;20167;-61
2022/01/30 13:59:41;;;;;;;40.00;29.80;;;7.00;99.90;;;;;;4391081;32;20156;-61
2022/01/30 14:02:32;;;;;;;34.03;30.73;;;6.80;99.90;;;;;;4394882;32;20156;-62
2022/01/30 14:05:39;;;;;;;41.47;30.90;;;6.90;99.90;;;;;;4392999;32;20163;-62
2022/01/30 14:08:23;;;;;;;34.60;28.10;;;6.90;99.90;;;;;;4401736;32;20171;-62